sensor_id;sensor_type;location;lat;lon;timestamp;P1;durP1;ratioP1;P2;durP2;ratioP2
72478;SDS011;60658;52.246;5.258;2022-08-21T00:00:54;7.80;;;4.65;;
72478;SDS011;60658;52.246;5.258;2022-08-21T00:01:57;8.10;;;4.63;;
72478;SDS011;60658;52.246;5.258;2022-08-21T00:02:58;8.00;;;4.00;;
72478;SDS011;60658;52.246;5.258;2022-08-21T00:04:03;9.85;;;4.10;;
72478;SDS011;60658;52.246;5.258;2022-08-21T00:05:14;9.52;;;4.35;;
72478;SDS011;60658;52.246;5.258;2022-08-21T00:06:15;8.00;;;4.20;;
72478;SDS011;60658;52.246;5.258;2022-08-21T00:07:18;8.25;;;4.75;;
72478;SDS011;60658;52.246;5.258;2022-08-21T00:08:26;8.63;;;4.32;;
72478;SDS011;60658;52.246;5.258;2022-08-21T00:09:27;6.80;;;4.07;;
72478;SDS011;60658;52.246;5.258;2022-08-21T00:10:28;10.68;;;4.43;;
72478;SDS011;60658;52.246;5.258;2022-08-21T00:11:29;9.80;;;4.40;;
72478;SDS011;60658;52.246;5.258;2022-08-21T00:12:30;10.23;;;4.50;;
72478;SDS011;60658;52.246;5.258;2022-08-21T00:13:31;8.98;;;4.60;;
72478;SDS011;60658;52.246;5.258;2022-08-21T00:14:32;9.75;;;4.72;;
72478;SDS011;60658;52.246;5.258;2022-08-21T00:15:33;8.77;;;4.60;;
72478;SDS011;60658;52.246;5.258;2022-08-21T00:16:34;7.30;;;4.40;;
72478;SDS011;60658;52.246;5.258;2022-08-21T00:17:38;9.32;;;4.70;;
72478;SDS011;60658;52.246;5.258;2022-08-21T00:18:38;7.80;;;4.40;;
72478;SDS011;60658;52.246;5.258;2022-08-21T00:19:41;9.05;;;4.68;;
72478;SDS011;60658;52.246;5.258;2022-08-21T00:20:43;9.68;;;5.07;;
72478;SDS011;60658;52.246;5.258;2022-08-21T00:21:44;8.38;;;4.50;;
72478;SDS011;60658;52.246;5.258;2022-08-21T00:22:46;9.18;;;4.70;;
72478;SDS011;60658;52.246;5.258;2022-08-21T00:23:47;8.50;;;4.60;;
72478;SDS011;60658;52.246;5.258;2022-08-21T00:24:50;9.27;;;4.82;;
72478;SDS011;60658;52.246;5.258;2022-08-21T00:25:51;9.30;;;5.70;;
72478;SDS011;60658;52.246;5.258;2022-08-21T00:26:52;11.02;;;5.60;;
72478;SDS011;60658;52.246;5.258;2022-08-21T00:27:55;11.80;;;5.10;;
72478;SDS011;60658;52.246;5.258;2022-08-21T00:28:59;10.43;;;4.68;;
72478;SDS011;60658;52.246;5.258;2022-08-21T00:30:00;8.95;;;4.97;;
72478;SDS011;60658;52.246;5.258;2022-08-21T00:31:00;9.02;;;5.13;;
72478;SDS011;60658;52.246;5.258;2022-08-21T00:32:01;9.85;;;4.82;;
72478;SDS011;60658;52.246;5.258;2022-08-21T00:33:16;8.45;;;4.75;;
72478;SDS011;60658;52.246;5.258;2022-08-21T00:34:17;7.38;;;4.43;;
72478;SDS011;60658;52.246;5.258;2022-08-21T00:35:22;10.38;;;5.00;;
72478;SDS011;60658;52.246;5.258;2022-08-21T00:36:26;7.68;;;5.10;;
72478;SDS011;60658;52.246;5.258;2022-08-21T00:37:30;7.32;;;4.50;;
72478;SDS011;60658;52.246;5.258;2022-08-21T00:38:32;11.80;;;4.90;;
72478;SDS011;60658;52.246;5.258;2022-08-21T00:39:38;8.13;;;4.95;;
72478;SDS011;60658;52.246;5.258;2022-08-21T00:40:42;9.13;;;4.75;;
72478;SDS011;60658;52.246;5.258;2022-08-21T00:41:43;10.60;;;5.00;;
72478;SDS011;60658;52.246;5.258;2022-08-21T00:42:44;10.27;;;4.72;;
72478;SDS011;60658;52.246;5.258;2022-08-21T00:43:45;10.85;;;4.32;;
72478;SDS011;60658;52.246;5.258;2022-08-21T00:44:47;9.40;;;5.15;;
72478;SDS011;60658;52.246;5.258;2022-08-21T00:45:48;10.00;;;5.05;;
72478;SDS011;60658;52.246;5.258;2022-08-21T00:46:49;9.63;;;4.07;;
72478;SDS011;60658;52.246;5.258;2022-08-21T00:47:50;7.95;;;5.00;;
72478;SDS011;60658;52.246;5.258;2022-08-21T00:48:51;7.55;;;4.68;;
72478;SDS011;60658;52.246;5.258;2022-08-21T00:49:52;10.73;;;4.97;;
72478;SDS011;60658;52.246;5.258;2022-08-21T00:50:54;8.38;;;4.78;;
72478;SDS011;60658;52.246;5.258;2022-08-21T00:51:59;10.82;;;4.40;;
72478;SDS011;60658;52.246;5.258;2022-08-21T00:53:01;10.63;;;4.38;;
72478;SDS011;60658;52.246;5.258;2022-08-21T00:54:04;7.82;;;4.32;;
72478;SDS011;60658;52.246;5.258;2022-08-21T00:56:07;8.48;;;4.30;;
72478;SDS011;60658;52.246;5.258;2022-08-21T00:57:14;8.02;;;4.32;;
72478;SDS011;60658;52.246;5.258;2022-08-21T00:58:15;8.73;;;4.78;;
72478;SDS011;60658;52.246;5.258;2022-08-21T00:59:17;10.32;;;4.70;;
72478;SDS011;60658;52.246;5.258;2022-08-21T01:00:24;9.27;;;4.57;;
72478;SDS011;60658;52.246;5.258;2022-08-21T01:01:33;9.32;;;4.78;;
72478;SDS011;60658;52.246;5.258;2022-08-21T01:02:39;10.05;;;4.40;;
72478;SDS011;60658;52.246;5.258;2022-08-21T01:03:42;9.70;;;4.60;;
72478;SDS011;60658;52.246;5.258;2022-08-21T01:04:46;7.78;;;4.65;;
72478;SDS011;60658;52.246;5.258;2022-08-21T01:05:47;8.55;;;4.82;;
72478;SDS011;60658;52.246;5.258;2022-08-21T01:06:48;7.38;;;4.15;;
72478;SDS011;60658;52.246;5.258;2022-08-21T01:07:54;8.13;;;4.60;;
72478;SDS011;60658;52.246;5.258;2022-08-21T01:08:55;11.25;;;4.78;;
72478;SDS011;60658;52.246;5.258;2022-08-21T01:10:00;7.88;;;4.28;;
72478;SDS011;60658;52.246;5.258;2022-08-21T01:11:01;11.00;;;4.85;;
72478;SDS011;60658;52.246;5.258;2022-08-21T01:12:02;8.23;;;4.38;;
72478;SDS011;60658;52.246;5.258;2022-08-21T01:13:03;8.07;;;4.28;;
72478;SDS011;60658;52.246;5.258;2022-08-21T01:14:04;9.65;;;4.93;;
72478;SDS011;60658;52.246;5.258;2022-08-21T01:15:06;9.07;;;4.30;;
72478;SDS011;60658;52.246;5.258;2022-08-21T01:16:08;7.55;;;4.25;;
72478;SDS011;60658;52.246;5.258;2022-08-21T01:17:09;8.43;;;4.80;;
72478;SDS011;60658;52.246;5.258;2022-08-21T01:18:14;8.18;;;4.35;;
72478;SDS011;60658;52.246;5.258;2022-08-21T01:19:15;8.15;;;4.30;;
72478;SDS011;60658;52.246;5.258;2022-08-21T01:20:16;8.63;;;4.82;;
72478;SDS011;60658;52.246;5.258;2022-08-21T01:21:19;6.95;;;4.22;;
72478;SDS011;60658;52.246;5.258;2022-08-21T01:22:26;8.82;;;5.22;;
72478;SDS011;60658;52.246;5.258;2022-08-21T01:23:27;9.05;;;4.90;;
72478;SDS011;60658;52.246;5.258;2022-08-21T01:24:31;9.07;;;4.63;;
72478;SDS011;60658;52.246;5.258;2022-08-21T01:25:32;8.23;;;4.13;;
72478;SDS011;60658;52.246;5.258;2022-08-21T01:26:42;10.38;;;4.65;;
72478;SDS011;60658;52.246;5.258;2022-08-21T01:27:43;10.48;;;4.22;;
72478;SDS011;60658;52.246;5.258;2022-08-21T01:28:46;9.73;;;4.28;;
72478;SDS011;60658;52.246;5.258;2022-08-21T01:29:50;12.85;;;4.53;;
72478;SDS011;60658;52.246;5.258;2022-08-21T01:30:51;9.05;;;5.20;;
72478;SDS011;60658;52.246;5.258;2022-08-21T01:31:53;9.95;;;4.78;;
72478;SDS011;60658;52.246;5.258;2022-08-21T01:33:01;11.00;;;4.78;;
72478;SDS011;60658;52.246;5.258;2022-08-21T01:34:02;8.38;;;4.47;;
72478;SDS011;60658;52.246;5.258;2022-08-21T01:35:04;8.45;;;4.50;;
72478;SDS011;60658;52.246;5.258;2022-08-21T01:36:06;12.93;;;4.70;;
72478;SDS011;60658;52.246;5.258;2022-08-21T01:37:09;8.55;;;4.32;;
72478;SDS011;60658;52.246;5.258;2022-08-21T01:38:10;9.45;;;5.00;;
72478;SDS011;60658;52.246;5.258;2022-08-21T01:39:15;8.35;;;4.97;;
72478;SDS011;60658;52.246;5.258;2022-08-21T01:40:17;8.13;;;4.47;;
72478;SDS011;60658;52.246;5.258;2022-08-21T01:41:19;9.73;;;4.22;;
72478;SDS011;60658;52.246;5.258;2022-08-21T01:42:20;9.55;;;4.15;;
72478;SDS011;60658;52.246;5.258;2022-08-21T01:43:23;8.95;;;4.18;;
72478;SDS011;60658;52.246;5.258;2022-08-21T01:44:27;8.75;;;4.28;;
72478;SDS011;60658;52.246;5.258;2022-08-21T01:45:28;8.82;;;4.03;;
72478;SDS011;60658;52.246;5.258;2022-08-21T01:46:29;8.80;;;4.32;;
72478;SDS011;60658;52.246;5.258;2022-08-21T01:47:29;10.73;;;4.70;;
72478;SDS011;60658;52.246;5.258;2022-08-21T01:48:32;11.70;;;4.20;;
72478;SDS011;60658;52.246;5.258;2022-08-21T01:49:33;8.13;;;4.70;;
72478;SDS011;60658;52.246;5.258;2022-08-21T01:50:37;9.30;;;4.22;;
72478;SDS011;60658;52.246;5.258;2022-08-21T01:51:47;8.93;;;4.35;;
72478;SDS011;60658;52.246;5.258;2022-08-21T01:52:49;9.82;;;4.68;;
72478;SDS011;60658;52.246;5.258;2022-08-21T01:53:50;8.85;;;4.07;;
72478;SDS011;60658;52.246;5.258;2022-08-21T01:54:54;7.57;;;4.32;;
72478;SDS011;60658;52.246;5.258;2022-08-21T01:55:57;10.07;;;4.30;;
72478;SDS011;60658;52.246;5.258;2022-08-21T01:57:01;9.93;;;4.63;;
72478;SDS011;60658;52.246;5.258;2022-08-21T01:58:03;9.45;;;4.60;;
72478;SDS011;60658;52.246;5.258;2022-08-21T01:59:04;9.63;;;4.72;;
72478;SDS011;60658;52.246;5.258;2022-08-21T02:00:08;7.93;;;4.25;;
72478;SDS011;60658;52.246;5.258;2022-08-21T02:01:21;8.77;;;4.13;;
72478;SDS011;60658;52.246;5.258;2022-08-21T02:02:22;6.80;;;3.95;;
72478;SDS011;60658;52.246;5.258;2022-08-21T02:03:23;7.03;;;4.15;;
72478;SDS011;60658;52.246;5.258;2022-08-21T02:04:26;7.07;;;3.95;;
72478;SDS011;60658;52.246;5.258;2022-08-21T02:05:32;7.28;;;4.22;;
72478;SDS011;60658;52.246;5.258;2022-08-21T02:06:33;11.25;;;4.40;;
72478;SDS011;60658;52.246;5.258;2022-08-21T02:07:37;10.38;;;4.47;;
72478;SDS011;60658;52.246;5.258;2022-08-21T02:08:44;7.88;;;4.22;;
72478;SDS011;60658;52.246;5.258;2022-08-21T02:09:47;7.95;;;4.38;;
72478;SDS011;60658;52.246;5.258;2022-08-21T02:10:51;8.98;;;4.65;;
72478;SDS011;60658;52.246;5.258;2022-08-21T02:11:54;8.40;;;4.13;;
72478;SDS011;60658;52.246;5.258;2022-08-21T02:12:58;8.85;;;4.32;;
72478;SDS011;60658;52.246;5.258;2022-08-21T02:14:02;9.02;;;4.57;;
72478;SDS011;60658;52.246;5.258;2022-08-21T02:15:03;8.70;;;4.72;;
72478;SDS011;60658;52.246;5.258;2022-08-21T02:16:05;7.50;;;4.18;;
72478;SDS011;60658;52.246;5.258;2022-08-21T02:17:06;10.18;;;4.68;;
72478;SDS011;60658;52.246;5.258;2022-08-21T02:18:07;9.90;;;4.45;;
72478;SDS011;60658;52.246;5.258;2022-08-21T02:19:08;9.05;;;4.70;;
72478;SDS011;60658;52.246;5.258;2022-08-21T02:20:19;10.25;;;4.60;;
72478;SDS011;60658;52.246;5.258;2022-08-21T02:21:20;9.07;;;4.35;;
72478;SDS011;60658;52.246;5.258;2022-08-21T02:22:21;6.75;;;3.92;;
72478;SDS011;60658;52.246;5.258;2022-08-21T02:23:22;9.52;;;4.35;;
72478;SDS011;60658;52.246;5.258;2022-08-21T02:24:35;7.47;;;4.25;;
72478;SDS011;60658;52.246;5.258;2022-08-21T02:25:35;9.13;;;4.22;;
72478;SDS011;60658;52.246;5.258;2022-08-21T02:26:36;8.93;;;4.32;;
72478;SDS011;60658;52.246;5.258;2022-08-21T02:27:51;8.88;;;4.25;;
72478;SDS011;60658;52.246;5.258;2022-08-21T02:28:52;6.95;;;4.32;;
72478;SDS011;60658;52.246;5.258;2022-08-21T02:29:58;7.05;;;4.05;;
72478;SDS011;60658;52.246;5.258;2022-08-21T02:31:01;6.57;;;4.13;;
72478;SDS011;60658;52.246;5.258;2022-08-21T02:32:05;9.50;;;4.63;;
72478;SDS011;60658;52.246;5.258;2022-08-21T02:33:12;6.93;;;4.13;;
72478;SDS011;60658;52.246;5.258;2022-08-21T02:34:13;9.63;;;4.63;;
72478;SDS011;60658;52.246;5.258;2022-08-21T02:35:17;10.02;;;4.20;;
72478;SDS011;60658;52.246;5.258;2022-08-21T02:36:18;8.90;;;4.10;;
72478;SDS011;60658;52.246;5.258;2022-08-21T02:37:18;9.15;;;4.40;;
72478;SDS011;60658;52.246;5.258;2022-08-21T02:38:21;8.18;;;4.20;;
72478;SDS011;60658;52.246;5.258;2022-08-21T02:39:22;9.30;;;4.22;;
72478;SDS011;60658;52.246;5.258;2022-08-21T02:40:25;8.73;;;4.38;;
72478;SDS011;60658;52.246;5.258;2022-08-21T02:41:29;8.90;;;4.00;;
72478;SDS011;60658;52.246;5.258;2022-08-21T02:42:29;11.63;;;4.90;;
72478;SDS011;60658;52.246;5.258;2022-08-21T02:43:33;7.32;;;4.43;;
72478;SDS011;60658;52.246;5.258;2022-08-21T02:44:34;8.82;;;4.03;;
72478;SDS011;60658;52.246;5.258;2022-08-21T02:45:35;7.03;;;4.13;;
72478;SDS011;60658;52.246;5.258;2022-08-21T02:46:51;8.25;;;4.20;;
72478;SDS011;60658;52.246;5.258;2022-08-21T02:47:52;9.57;;;4.20;;
72478;SDS011;60658;52.246;5.258;2022-08-21T02:48:55;8.50;;;4.20;;
72478;SDS011;60658;52.246;5.258;2022-08-21T02:49:58;11.00;;;4.20;;
72478;SDS011;60658;52.246;5.258;2022-08-21T02:51:00;7.65;;;3.75;;
72478;SDS011;60658;52.246;5.258;2022-08-21T02:52:04;7.40;;;4.03;;
72478;SDS011;60658;52.246;5.258;2022-08-21T02:53:05;7.30;;;4.75;;
72478;SDS011;60658;52.246;5.258;2022-08-21T02:54:06;9.20;;;4.40;;
72478;SDS011;60658;52.246;5.258;2022-08-21T02:55:07;8.65;;;4.32;;
72478;SDS011;60658;52.246;5.258;2022-08-21T02:56:12;10.48;;;4.70;;
72478;SDS011;60658;52.246;5.258;2022-08-21T02:57:13;9.63;;;4.57;;
72478;SDS011;60658;52.246;5.258;2022-08-21T02:58:14;11.70;;;4.80;;
72478;SDS011;60658;52.246;5.258;2022-08-21T02:59:21;10.95;;;5.10;;
72478;SDS011;60658;52.246;5.258;2022-08-21T03:00:22;9.65;;;5.10;;
72478;SDS011;60658;52.246;5.258;2022-08-21T03:01:23;13.15;;;4.93;;
72478;SDS011;60658;52.246;5.258;2022-08-21T03:02:24;11.15;;;4.90;;
72478;SDS011;60658;52.246;5.258;2022-08-21T03:03:48;10.13;;;4.40;;
72478;SDS011;60658;52.246;5.258;2022-08-21T03:04:51;9.52;;;4.45;;
72478;SDS011;60658;52.246;5.258;2022-08-21T03:05:52;8.88;;;4.72;;
72478;SDS011;60658;52.246;5.258;2022-08-21T03:06:53;10.13;;;4.90;;
72478;SDS011;60658;52.246;5.258;2022-08-21T03:07:54;7.85;;;4.45;;
72478;SDS011;60658;52.246;5.258;2022-08-21T03:09:11;9.02;;;4.70;;
72478;SDS011;60658;52.246;5.258;2022-08-21T03:10:14;10.43;;;4.97;;
72478;SDS011;60658;52.246;5.258;2022-08-21T03:11:19;9.25;;;4.80;;
72478;SDS011;60658;52.246;5.258;2022-08-21T03:12:20;9.82;;;4.57;;
72478;SDS011;60658;52.246;5.258;2022-08-21T03:13:21;10.27;;;4.78;;
72478;SDS011;60658;52.246;5.258;2022-08-21T03:14:21;7.82;;;4.53;;
72478;SDS011;60658;52.246;5.258;2022-08-21T03:15:22;9.25;;;4.63;;
72478;SDS011;60658;52.246;5.258;2022-08-21T03:16:23;9.55;;;4.20;;
72478;SDS011;60658;52.246;5.258;2022-08-21T03:17:24;10.10;;;5.20;;
72478;SDS011;60658;52.246;5.258;2022-08-21T03:18:25;11.23;;;4.90;;
72478;SDS011;60658;52.246;5.258;2022-08-21T03:19:28;10.30;;;4.45;;
72478;SDS011;60658;52.246;5.258;2022-08-21T03:20:31;10.90;;;5.13;;
72478;SDS011;60658;52.246;5.258;2022-08-21T03:21:35;10.10;;;5.00;;
72478;SDS011;60658;52.246;5.258;2022-08-21T03:22:36;10.40;;;5.10;;
72478;SDS011;60658;52.246;5.258;2022-08-21T03:23:37;11.85;;;5.40;;
72478;SDS011;60658;52.246;5.258;2022-08-21T03:24:38;14.50;;;5.35;;
72478;SDS011;60658;52.246;5.258;2022-08-21T03:25:39;9.57;;;4.65;;
72478;SDS011;60658;52.246;5.258;2022-08-21T03:26:49;8.45;;;4.90;;
72478;SDS011;60658;52.246;5.258;2022-08-21T03:27:50;10.98;;;5.80;;
72478;SDS011;60658;52.246;5.258;2022-08-21T03:28:51;8.55;;;4.68;;
72478;SDS011;60658;52.246;5.258;2022-08-21T03:29:52;7.95;;;4.68;;
72478;SDS011;60658;52.246;5.258;2022-08-21T03:30:53;8.57;;;4.70;;
72478;SDS011;60658;52.246;5.258;2022-08-21T03:31:54;10.77;;;4.65;;
72478;SDS011;60658;52.246;5.258;2022-08-21T03:32:55;9.68;;;4.32;;
72478;SDS011;60658;52.246;5.258;2022-08-21T03:34:10;7.53;;;4.15;;
72478;SDS011;60658;52.246;5.258;2022-08-21T03:35:10;10.23;;;4.40;;
72478;SDS011;60658;52.246;5.258;2022-08-21T03:36:17;8.77;;;4.30;;
72478;SDS011;60658;52.246;5.258;2022-08-21T03:37:21;8.80;;;4.68;;
72478;SDS011;60658;52.246;5.258;2022-08-21T03:38:21;9.00;;;5.05;;
72478;SDS011;60658;52.246;5.258;2022-08-21T03:39:22;8.88;;;4.88;;
72478;SDS011;60658;52.246;5.258;2022-08-21T03:40:23;12.18;;;5.60;;
72478;SDS011;60658;52.246;5.258;2022-08-21T03:41:24;10.52;;;5.10;;
72478;SDS011;60658;52.246;5.258;2022-08-21T03:42:26;9.77;;;5.22;;
72478;SDS011;60658;52.246;5.258;2022-08-21T03:43:27;13.20;;;6.10;;
72478;SDS011;60658;52.246;5.258;2022-08-21T03:44:28;10.50;;;5.22;;
72478;SDS011;60658;52.246;5.258;2022-08-21T03:45:29;11.73;;;5.57;;
72478;SDS011;60658;52.246;5.258;2022-08-21T03:46:29;11.15;;;5.63;;
72478;SDS011;60658;52.246;5.258;2022-08-21T03:47:30;9.35;;;5.13;;
72478;SDS011;60658;52.246;5.258;2022-08-21T03:48:31;9.80;;;5.13;;
72478;SDS011;60658;52.246;5.258;2022-08-21T03:49:32;12.32;;;5.50;;
72478;SDS011;60658;52.246;5.258;2022-08-21T03:50:34;11.23;;;5.70;;
72478;SDS011;60658;52.246;5.258;2022-08-21T03:51:35;10.57;;;5.18;;
72478;SDS011;60658;52.246;5.258;2022-08-21T03:52:37;12.32;;;5.50;;
72478;SDS011;60658;52.246;5.258;2022-08-21T03:53:38;11.23;;;5.72;;
72478;SDS011;60658;52.246;5.258;2022-08-21T03:54:38;12.25;;;5.43;;
72478;SDS011;60658;52.246;5.258;2022-08-21T03:55:39;12.63;;;5.55;;
72478;SDS011;60658;52.246;5.258;2022-08-21T03:56:43;9.38;;;6.00;;
72478;SDS011;60658;52.246;5.258;2022-08-21T03:57:45;8.40;;;5.43;;
72478;SDS011;60658;52.246;5.258;2022-08-21T03:58:48;11.35;;;6.38;;
72478;SDS011;60658;52.246;5.258;2022-08-21T03:59:50;11.70;;;5.47;;
72478;SDS011;60658;52.246;5.258;2022-08-21T04:00:55;11.93;;;5.47;;
72478;SDS011;60658;52.246;5.258;2022-08-21T04:01:57;10.45;;;5.22;;
72478;SDS011;60658;52.246;5.258;2022-08-21T04:03:00;11.02;;;5.40;;
72478;SDS011;60658;52.246;5.258;2022-08-21T04:04:01;22.88;;;6.10;;
72478;SDS011;60658;52.246;5.258;2022-08-21T04:05:04;10.60;;;5.57;;
72478;SDS011;60658;52.246;5.258;2022-08-21T04:06:24;12.73;;;5.43;;
72478;SDS011;60658;52.246;5.258;2022-08-21T04:07:24;13.80;;;6.15;;
72478;SDS011;60658;52.246;5.258;2022-08-21T04:08:25;10.23;;;5.50;;
72478;SDS011;60658;52.246;5.258;2022-08-21T04:09:26;9.15;;;5.22;;
72478;SDS011;60658;52.246;5.258;2022-08-21T04:10:27;12.70;;;6.00;;
72478;SDS011;60658;52.246;5.258;2022-08-21T04:11:46;13.05;;;5.97;;
72478;SDS011;60658;52.246;5.258;2022-08-21T04:12:50;11.75;;;5.28;;
72478;SDS011;60658;52.246;5.258;2022-08-21T04:13:53;11.20;;;5.00;;
72478;SDS011;60658;52.246;5.258;2022-08-21T04:14:54;9.90;;;5.28;;
72478;SDS011;60658;52.246;5.258;2022-08-21T04:15:54;9.88;;;5.25;;
72478;SDS011;60658;52.246;5.258;2022-08-21T04:16:55;8.32;;;4.70;;
72478;SDS011;60658;52.246;5.258;2022-08-21T04:17:56;10.98;;;6.10;;
72478;SDS011;60658;52.246;5.258;2022-08-21T04:18:56;15.40;;;6.28;;
72478;SDS011;60658;52.246;5.258;2022-08-21T04:19:57;14.48;;;5.85;;
72478;SDS011;60658;52.246;5.258;2022-08-21T04:20:58;14.40;;;6.35;;
72478;SDS011;60658;52.246;5.258;2022-08-21T04:21:59;11.13;;;5.68;;
72478;SDS011;60658;52.246;5.258;2022-08-21T04:23:00;11.38;;;6.18;;
72478;SDS011;60658;52.246;5.258;2022-08-21T04:24:02;12.30;;;6.38;;
72478;SDS011;60658;52.246;5.258;2022-08-21T04:25:07;14.20;;;6.70;;
72478;SDS011;60658;52.246;5.258;2022-08-21T04:26:09;12.43;;;6.13;;
72478;SDS011;60658;52.246;5.258;2022-08-21T04:27:10;10.00;;;5.85;;
72478;SDS011;60658;52.246;5.258;2022-08-21T04:28:13;9.23;;;5.72;;
72478;SDS011;60658;52.246;5.258;2022-08-21T04:29:13;12.82;;;6.30;;
72478;SDS011;60658;52.246;5.258;2022-08-21T04:30:14;10.90;;;5.97;;
72478;SDS011;60658;52.246;5.258;2022-08-21T04:31:20;11.43;;;6.55;;
72478;SDS011;60658;52.246;5.258;2022-08-21T04:32:21;12.02;;;6.72;;
72478;SDS011;60658;52.246;5.258;2022-08-21T04:33:23;12.93;;;5.70;;
72478;SDS011;60658;52.246;5.258;2022-08-21T04:34:24;17.60;;;6.50;;
72478;SDS011;60658;52.246;5.258;2022-08-21T04:35:25;12.02;;;6.88;;
72478;SDS011;60658;52.246;5.258;2022-08-21T04:36:26;13.82;;;6.88;;
72478;SDS011;60658;52.246;5.258;2022-08-21T04:37:27;12.90;;;6.43;;
72478;SDS011;60658;52.246;5.258;2022-08-21T04:38:28;11.20;;;6.93;;
72478;SDS011;60658;52.246;5.258;2022-08-21T04:39:29;10.02;;;6.80;;
72478;SDS011;60658;52.246;5.258;2022-08-21T04:40:29;11.95;;;6.78;;
72478;SDS011;60658;52.246;5.258;2022-08-21T04:41:30;12.85;;;7.07;;
72478;SDS011;60658;52.246;5.258;2022-08-21T04:42:31;14.65;;;8.15;;
72478;SDS011;60658;52.246;5.258;2022-08-21T04:43:41;14.13;;;6.70;;
72478;SDS011;60658;52.246;5.258;2022-08-21T04:44:41;15.38;;;7.13;;
72478;SDS011;60658;52.246;5.258;2022-08-21T04:45:43;14.15;;;7.45;;
72478;SDS011;60658;52.246;5.258;2022-08-21T04:46:44;15.55;;;8.80;;
72478;SDS011;60658;52.246;5.258;2022-08-21T04:47:45;14.32;;;7.43;;
72478;SDS011;60658;52.246;5.258;2022-08-21T04:48:46;11.77;;;6.72;;
72478;SDS011;60658;52.246;5.258;2022-08-21T04:49:47;15.90;;;7.65;;
72478;SDS011;60658;52.246;5.258;2022-08-21T04:50:52;12.23;;;7.07;;
72478;SDS011;60658;52.246;5.258;2022-08-21T04:51:54;14.15;;;7.55;;
72478;SDS011;60658;52.246;5.258;2022-08-21T04:52:55;13.63;;;7.97;;
72478;SDS011;60658;52.246;5.258;2022-08-21T04:53:56;11.63;;;7.22;;
72478;SDS011;60658;52.246;5.258;2022-08-21T04:54:58;14.68;;;7.28;;
72478;SDS011;60658;52.246;5.258;2022-08-21T04:56:02;16.27;;;8.13;;
72478;SDS011;60658;52.246;5.258;2022-08-21T04:57:08;14.23;;;7.47;;
72478;SDS011;60658;52.246;5.258;2022-08-21T04:58:12;17.98;;;7.93;;
72478;SDS011;60658;52.246;5.258;2022-08-21T04:59:17;13.80;;;7.63;;
72478;SDS011;60658;52.246;5.258;2022-08-21T05:00:20;17.38;;;7.15;;
72478;SDS011;60658;52.246;5.258;2022-08-21T05:01:24;15.18;;;7.32;;
72478;SDS011;60658;52.246;5.258;2022-08-21T05:02:26;14.20;;;7.40;;
72478;SDS011;60658;52.246;5.258;2022-08-21T05:03:27;16.33;;;7.15;;
72478;SDS011;60658;52.246;5.258;2022-08-21T05:04:29;14.40;;;7.55;;
72478;SDS011;60658;52.246;5.258;2022-08-21T05:05:32;12.90;;;6.60;;
72478;SDS011;60658;52.246;5.258;2022-08-21T05:06:34;14.00;;;7.03;;
72478;SDS011;60658;52.246;5.258;2022-08-21T05:07:35;15.45;;;6.93;;
72478;SDS011;60658;52.246;5.258;2022-08-21T05:08:38;12.93;;;6.72;;
72478;SDS011;60658;52.246;5.258;2022-08-21T05:10:40;12.95;;;6.35;;
72478;SDS011;60658;52.246;5.258;2022-08-21T05:11:41;14.40;;;6.78;;
72478;SDS011;60658;52.246;5.258;2022-08-21T05:12:42;14.27;;;6.72;;
72478;SDS011;60658;52.246;5.258;2022-08-21T05:13:43;14.48;;;7.07;;
72478;SDS011;60658;52.246;5.258;2022-08-21T05:14:47;13.15;;;6.80;;
72478;SDS011;60658;52.246;5.258;2022-08-21T05:15:50;16.23;;;7.40;;
72478;SDS011;60658;52.246;5.258;2022-08-21T05:16:51;12.98;;;7.35;;
72478;SDS011;60658;52.246;5.258;2022-08-21T05:17:51;15.02;;;7.18;;
72478;SDS011;60658;52.246;5.258;2022-08-21T05:18:52;14.80;;;7.03;;
72478;SDS011;60658;52.246;5.258;2022-08-21T05:19:53;11.73;;;7.18;;
72478;SDS011;60658;52.246;5.258;2022-08-21T05:20:56;15.48;;;7.55;;
72478;SDS011;60658;52.246;5.258;2022-08-21T05:21:57;11.20;;;6.53;;
72478;SDS011;60658;52.246;5.258;2022-08-21T05:22:58;12.90;;;7.28;;
72478;SDS011;60658;52.246;5.258;2022-08-21T05:23:59;13.45;;;7.10;;
72478;SDS011;60658;52.246;5.258;2022-08-21T05:24:59;15.20;;;7.25;;
72478;SDS011;60658;52.246;5.258;2022-08-21T05:26:00;15.32;;;6.72;;
72478;SDS011;60658;52.246;5.258;2022-08-21T05:27:06;11.02;;;6.47;;
72478;SDS011;60658;52.246;5.258;2022-08-21T05:28:07;13.88;;;6.70;;
72478;SDS011;60658;52.246;5.258;2022-08-21T05:29:08;15.73;;;7.80;;
72478;SDS011;60658;52.246;5.258;2022-08-21T05:30:11;13.52;;;7.03;;
72478;SDS011;60658;52.246;5.258;2022-08-21T05:31:12;13.07;;;6.93;;
72478;SDS011;60658;52.246;5.258;2022-08-21T05:32:13;16.20;;;8.13;;
72478;SDS011;60658;52.246;5.258;2022-08-21T05:33:14;13.30;;;7.13;;
72478;SDS011;60658;52.246;5.258;2022-08-21T05:34:17;13.05;;;7.35;;
72478;SDS011;60658;52.246;5.258;2022-08-21T05:35:18;17.20;;;6.88;;
72478;SDS011;60658;52.246;5.258;2022-08-21T05:36:19;17.58;;;7.40;;
72478;SDS011;60658;52.246;5.258;2022-08-21T05:37:19;15.95;;;7.80;;
72478;SDS011;60658;52.246;5.258;2022-08-21T05:38:20;16.50;;;7.93;;
72478;SDS011;60658;52.246;5.258;2022-08-21T05:39:23;13.52;;;7.82;;
72478;SDS011;60658;52.246;5.258;2022-08-21T05:40:26;14.35;;;6.85;;
72478;SDS011;60658;52.246;5.258;2022-08-21T05:41:26;14.25;;;7.50;;
72478;SDS011;60658;52.246;5.258;2022-08-21T05:42:27;14.02;;;7.93;;
72478;SDS011;60658;52.246;5.258;2022-08-21T05:43:28;16.75;;;7.43;;
72478;SDS011;60658;52.246;5.258;2022-08-21T05:44:29;14.73;;;7.72;;
72478;SDS011;60658;52.246;5.258;2022-08-21T05:45:32;14.80;;;6.65;;
72478;SDS011;60658;52.246;5.258;2022-08-21T05:46:33;11.30;;;7.60;;
72478;SDS011;60658;52.246;5.258;2022-08-21T05:47:42;13.20;;;7.10;;
72478;SDS011;60658;52.246;5.258;2022-08-21T05:48:43;18.10;;;7.28;;
72478;SDS011;60658;52.246;5.258;2022-08-21T05:49:44;13.40;;;6.97;;
72478;SDS011;60658;52.246;5.258;2022-08-21T05:50:45;12.07;;;6.88;;
72478;SDS011;60658;52.246;5.258;2022-08-21T05:51:46;12.73;;;7.00;;
72478;SDS011;60658;52.246;5.258;2022-08-21T05:52:47;13.05;;;7.80;;
72478;SDS011;60658;52.246;5.258;2022-08-21T05:53:49;13.70;;;7.72;;
72478;SDS011;60658;52.246;5.258;2022-08-21T05:54:50;14.60;;;7.75;;
72478;SDS011;60658;52.246;5.258;2022-08-21T05:55:51;13.68;;;7.68;;
72478;SDS011;60658;52.246;5.258;2022-08-21T05:56:54;15.68;;;7.22;;
72478;SDS011;60658;52.246;5.258;2022-08-21T05:57:58;14.30;;;6.13;;
72478;SDS011;60658;52.246;5.258;2022-08-21T05:58:58;11.13;;;6.47;;
72478;SDS011;60658;52.246;5.258;2022-08-21T05:59:59;17.17;;;7.55;;
72478;SDS011;60658;52.246;5.258;2022-08-21T06:02:17;16.70;;;7.25;;
72478;SDS011;60658;52.246;5.258;2022-08-21T06:03:19;16.73;;;6.85;;
72478;SDS011;60658;52.246;5.258;2022-08-21T06:04:34;13.70;;;7.03;;
72478;SDS011;60658;52.246;5.258;2022-08-21T06:05:35;10.93;;;6.40;;
72478;SDS011;60658;52.246;5.258;2022-08-21T06:06:45;18.25;;;7.38;;
72478;SDS011;60658;52.246;5.258;2022-08-21T06:07:46;15.55;;;7.13;;
72478;SDS011;60658;52.246;5.258;2022-08-21T06:08:46;14.30;;;7.05;;
72478;SDS011;60658;52.246;5.258;2022-08-21T06:11:09;13.15;;;6.55;;
72478;SDS011;60658;52.246;5.258;2022-08-21T06:12:11;12.55;;;7.38;;
72478;SDS011;60658;52.246;5.258;2022-08-21T06:14:30;13.07;;;6.32;;
72478;SDS011;60658;52.246;5.258;2022-08-21T06:15:31;13.68;;;7.20;;
72478;SDS011;60658;52.246;5.258;2022-08-21T06:16:32;10.98;;;7.07;;
72478;SDS011;60658;52.246;5.258;2022-08-21T06:17:36;15.15;;;8.18;;
72478;SDS011;60658;52.246;5.258;2022-08-21T06:18:40;16.27;;;7.28;;
72478;SDS011;60658;52.246;5.258;2022-08-21T06:19:43;16.02;;;6.88;;
72478;SDS011;60658;52.246;5.258;2022-08-21T06:20:44;16.48;;;7.10;;